createdAt,value
2017-04-19T00:00:30.861Z,1016.36
2017-04-19T00:01:11.335Z,1016.41
2017-04-19T00:01:51.808Z,1016.39
2017-04-19T00:02:32.278Z,1016.39
2017-04-19T00:03:12.767Z,1016.4
2017-04-19T00:03:53.245Z,1016.37
2017-04-19T00:04:33.729Z,1016.41
2017-04-19T00:05:14.238Z,1016.41
2017-04-19T00:05:54.693Z,1016.41
2017-04-19T00:06:35.124Z,1016.4
2017-04-19T00:09:02.986Z,1016.38
2017-04-19T00:09:43.391Z,1016.39
2017-04-19T00:10:23.893Z,1016.4
2017-04-19T00:11:04.362Z,1016.43
2017-04-19T00:11:44.827Z,1016.45
2017-04-19T00:12:25.304Z,1016.4
2017-04-19T00:13:05.790Z,1016.43
2017-04-19T00:13:46.271Z,1016.44
2017-04-19T00:14:26.744Z,1016.44
2017-04-19T00:15:07.231Z,1016.41
2017-04-19T00:15:47.682Z,1016.42
2017-04-19T00:16:28.154Z,1016.41
2017-04-19T00:17:08.639Z,1016.4
2017-04-19T00:17:49.138Z,1016.42
2017-04-19T00:18:29.612Z,1016.39
2017-04-19T00:19:10.084Z,1016.4
2017-04-19T00:19:50.576Z,1016.39
2017-04-19T00:20:31.065Z,1016.39
2017-04-19T00:22:48.858Z,1016.42
2017-04-19T00:23:29.364Z,1016.41
2017-04-19T00:24:09.823Z,1016.38
2017-04-19T00:24:50.314Z,1016.41
2017-04-19T00:25:30.804Z,1016.4
2017-04-19T00:26:11.262Z,1016.39
2017-04-19T00:26:51.722Z,1016.4
2017-04-19T00:27:32.185Z,1016.39
2017-04-19T00:28:12.653Z,1016.39
2017-04-19T00:28:53.133Z,1016.39
2017-04-19T00:29:33.615Z,1016.41
2017-04-19T00:31:31.221Z,1016.41
2017-04-19T00:32:11.682Z,1016.41
2017-04-19T00:32:52.140Z,1016.43
2017-04-19T00:33:32.570Z,1016.43
2017-04-19T00:34:13.047Z,1016.44
2017-04-19T00:34:53.525Z,1016.44
2017-04-19T00:35:33.992Z,1016.45
2017-04-19T00:36:14.479Z,1016.46
2017-04-19T00:36:54.929Z,1016.48
2017-04-19T00:37:35.393Z,1016.47
2017-04-19T00:38:15.902Z,1016.48
2017-04-19T00:38:56.362Z,1016.49
2017-04-19T00:41:14.248Z,1016.47
2017-04-19T00:41:54.725Z,1016.46
2017-04-19T00:42:35.189Z,1016.46
2017-04-19T00:43:15.676Z,1016.46
2017-04-19T00:43:56.161Z,1016.45
2017-04-19T00:44:36.695Z,1016.45
2017-04-19T00:45:17.116Z,1016.49
2017-04-19T00:45:57.610Z,1016.48
2017-04-19T00:46:38.086Z,1016.46
2017-04-19T00:47:18.545Z,1016.49
2017-04-19T00:47:59.026Z,1016.48
2017-04-19T00:48:39.506Z,1016.49
2017-04-19T00:49:20.003Z,1016.48
2017-04-19T00:50:00.485Z,1016.5
2017-04-19T00:50:40.969Z,1016.48
2017-04-19T00:51:21.432Z,1016.47
2017-04-19T00:52:01.940Z,1016.48
2017-04-19T00:52:42.420Z,1016.49
2017-04-19T00:53:22.848Z,1016.49
2017-04-19T00:55:15.393Z,1016.49
2017-04-19T00:55:55.819Z,1016.54
2017-04-19T00:56:36.278Z,1016.51
2017-04-19T00:57:16.772Z,1016.49
2017-04-19T00:57:57.184Z,1016.5
2017-04-19T00:58:37.639Z,1016.5
2017-04-19T00:59:18.092Z,1016.52
2017-04-19T00:59:58.536Z,1016.53
2017-04-19T01:00:38.986Z,1016.53
2017-04-19T01:01:19.426Z,1016.55
2017-04-19T01:01:59.871Z,1016.55
2017-04-19T01:02:40.339Z,1016.53
2017-04-19T01:03:20.755Z,1016.53
2017-04-19T01:04:01.211Z,1016.53
2017-04-19T01:04:41.673Z,1016.52
2017-04-19T01:05:22.076Z,1016.53
2017-04-19T01:06:02.535Z,1016.53
2017-04-19T01:06:42.991Z,1016.51
2017-04-19T01:07:23.430Z,1016.55
2017-04-19T01:08:03.925Z,1016.51
2017-04-19T01:08:44.318Z,1016.53
2017-04-19T01:09:24.763Z,1016.57
2017-04-19T01:10:05.197Z,1016.53
2017-04-19T01:10:45.655Z,1016.54
2017-04-19T01:11:26.100Z,1016.58
2017-04-19T01:12:06.501Z,1016.56
2017-04-19T01:12:46.935Z,1016.52
2017-04-19T01:13:27.406Z,1016.53
2017-04-19T01:14:07.869Z,1016.53
2017-04-19T01:14:48.270Z,1016.51
2017-04-19T01:15:28.737Z,1016.53
2017-04-19T01:16:09.203Z,1016.52
2017-04-19T01:16:49.655Z,1016.56
2017-04-19T01:17:30.103Z,1016.54
2017-04-19T01:18:11.356Z,1016.58
2017-04-19T01:18:51.857Z,1016.57
2017-04-19T01:19:32.316Z,1016.55
2017-04-19T01:21:50.173Z,1016.54
2017-04-19T01:22:30.597Z,1016.55
2017-04-19T01:23:11.062Z,1016.55
2017-04-19T01:23:51.552Z,1016.58
2017-04-19T01:24:32.034Z,1016.56
2017-04-19T01:25:12.508Z,1016.57
2017-04-19T01:25:52.984Z,1016.56
2017-04-19T01:26:33.490Z,1016.59
2017-04-19T01:27:14.029Z,1016.57
2017-04-19T01:27:54.429Z,1016.59
2017-04-19T01:28:34.903Z,1016.56
2017-04-19T01:29:15.382Z,1016.62
2017-04-19T01:29:55.868Z,1016.57
2017-04-19T01:30:36.362Z,1016.6
2017-04-19T01:31:16.840Z,1016.58
2017-04-19T01:31:57.310Z,1016.59
2017-04-19T01:32:37.792Z,1016.59
2017-04-19T01:33:18.274Z,1016.6
2017-04-19T01:33:58.740Z,1016.59
2017-04-19T01:34:39.218Z,1016.6
2017-04-19T01:35:19.697Z,1016.67
2017-04-19T01:36:00.179Z,1016.64
2017-04-19T01:36:40.671Z,1016.67
2017-04-19T01:37:21.174Z,1016.64
2017-04-19T01:38:01.636Z,1016.63
2017-04-19T01:38:42.129Z,1016.62
2017-04-19T01:39:22.714Z,1016.63
2017-04-19T01:40:03.100Z,1016.65
2017-04-19T01:40:43.614Z,1016.67
2017-04-19T01:41:24.080Z,1016.64
2017-04-19T01:42:04.579Z,1016.68
2017-04-19T01:42:45.069Z,1016.69
2017-04-19T01:43:25.552Z,1016.67
2017-04-19T01:44:06.039Z,1016.68
2017-04-19T01:44:46.525Z,1016.68
2017-04-19T01:45:27.019Z,1016.68
2017-04-19T01:46:07.543Z,1016.69
2017-04-19T01:46:47.984Z,1016.7
2017-04-19T01:47:28.479Z,1016.69
2017-04-19T01:48:08.974Z,1016.7
2017-04-19T01:48:49.460Z,1016.7
2017-04-19T01:49:29.942Z,1016.71
2017-04-19T01:50:10.432Z,1016.72
2017-04-19T01:50:50.913Z,1016.68
2017-04-19T01:51:31.350Z,1016.66
2017-04-19T01:52:11.800Z,1016.68
2017-04-19T01:52:52.269Z,1016.67
2017-04-19T01:53:32.732Z,1016.68
2017-04-19T01:54:13.212Z,1016.66
2017-04-19T01:54:53.694Z,1016.7
2017-04-19T01:55:34.173Z,1016.66
2017-04-19T01:56:14.661Z,1016.67
2017-04-19T01:56:55.127Z,1016.67
2017-04-19T01:57:35.587Z,1016.66
2017-04-19T01:58:16.026Z,1016.63
2017-04-19T01:58:56.491Z,1016.64
2017-04-19T01:59:36.959Z,1016.66
2017-04-19T02:00:17.436Z,1016.63
2017-04-19T02:00:57.919Z,1016.64
2017-04-19T02:01:38.403Z,1016.63
2017-04-19T02:02:18.883Z,1016.63
2017-04-19T02:02:59.365Z,1016.64
2017-04-19T02:03:39.844Z,1016.63
2017-04-19T02:04:20.297Z,1016.67
2017-04-19T02:05:00.775Z,1016.65
2017-04-19T02:05:41.215Z,1016.67
2017-04-19T02:07:38.973Z,1016.67
2017-04-19T02:08:19.394Z,1016.68
2017-04-19T02:08:59.830Z,1016.67
2017-04-19T02:09:40.278Z,1016.69
2017-04-19T02:10:20.711Z,1016.67
2017-04-19T02:11:02.126Z,1016.71
2017-04-19T02:11:42.563Z,1016.7
2017-04-19T02:12:22.998Z,1016.69
2017-04-19T02:14:15.522Z,1016.66
2017-04-19T02:14:56.002Z,1016.7
2017-04-19T02:15:36.456Z,1016.69
2017-04-19T02:16:16.876Z,1016.71
2017-04-19T02:18:09.417Z,1016.7
2017-04-19T02:18:49.858Z,1016.72
2017-04-19T02:19:30.308Z,1016.74
2017-04-19T02:20:10.819Z,1016.74
2017-04-19T02:20:51.282Z,1016.71
2017-04-19T02:21:31.778Z,1016.75
2017-04-19T02:22:12.252Z,1016.72
2017-04-19T02:22:52.734Z,1016.71
2017-04-19T02:23:33.215Z,1016.73
2017-04-19T02:25:45.997Z,1016.72
2017-04-19T02:26:26.405Z,1016.73
2017-04-19T02:27:06.846Z,1016.74
2017-04-19T02:27:47.308Z,1016.74
2017-04-19T02:28:27.776Z,1016.76
2017-04-19T02:29:08.230Z,1016.7
2017-04-19T02:29:48.704Z,1016.75
2017-04-19T02:30:29.151Z,1016.73
2017-04-19T02:31:09.593Z,1016.76
2017-04-19T02:31:50.066Z,1016.78
2017-04-19T02:32:30.533Z,1016.8
2017-04-19T02:33:10.997Z,1016.78
2017-04-19T02:33:51.440Z,1016.82
2017-04-19T02:34:31.895Z,1016.84
2017-04-19T02:35:12.348Z,1016.79
2017-04-19T02:35:52.801Z,1016.86
2017-04-19T02:36:33.276Z,1016.82
2017-04-19T02:38:51.082Z,1016.8
2017-04-19T02:39:31.608Z,1016.87
2017-04-19T02:40:12.033Z,1016.82
2017-04-19T02:40:52.543Z,1016.87
2017-04-19T02:41:32.998Z,1016.88
2017-04-19T02:42:13.445Z,1016.86
2017-04-19T02:42:53.890Z,1016.84
2017-04-19T02:43:34.362Z,1016.86
2017-04-19T02:44:14.853Z,1016.84
2017-04-19T02:44:55.328Z,1016.83
2017-04-19T02:45:35.793Z,1016.84
2017-04-19T02:46:16.252Z,1016.87
2017-04-19T02:46:56.738Z,1016.85
2017-04-19T02:47:37.225Z,1016.84
2017-04-19T02:48:17.656Z,1016.87
2017-04-19T02:48:58.112Z,1016.84
2017-04-19T02:51:10.838Z,1016.85
2017-04-19T02:51:52.013Z,1016.83
2017-04-19T02:52:32.468Z,1016.83
2017-04-19T02:53:12.915Z,1016.83
2017-04-19T02:53:53.312Z,1016.8
2017-04-19T02:54:34.764Z,1016.85
2017-04-19T02:56:47.394Z,1016.89
2017-04-19T02:57:27.854Z,1016.85
2017-04-19T02:58:08.335Z,1016.89
2017-04-19T02:58:48.814Z,1016.89
2017-04-19T02:59:29.308Z,1016.85
2017-04-19T03:00:09.783Z,1016.9
2017-04-19T03:00:50.260Z,1016.85
2017-04-19T03:01:30.752Z,1016.91
2017-04-19T03:02:11.241Z,1016.88
2017-04-19T03:02:51.744Z,1016.91
2017-04-19T03:03:32.204Z,1016.88
2017-04-19T03:04:12.688Z,1016.89
2017-04-19T03:04:53.164Z,1016.87
2017-04-19T03:05:33.623Z,1016.87
2017-04-19T03:06:14.104Z,1016.93
2017-04-19T03:06:54.602Z,1016.89
2017-04-19T03:09:07.270Z,1016.91
2017-04-19T03:09:47.764Z,1016.93
2017-04-19T03:10:28.240Z,1016.9
2017-04-19T03:11:08.699Z,1016.93
2017-04-19T03:11:49.193Z,1016.94
2017-04-19T03:12:29.689Z,1016.91
2017-04-19T03:13:10.255Z,1016.97
2017-04-19T03:13:50.631Z,1016.94
2017-04-19T03:14:31.128Z,1016.96
2017-04-19T03:15:11.627Z,1016.95
2017-04-19T03:15:52.091Z,1016.91
2017-04-19T03:16:32.577Z,1016.92
2017-04-19T03:17:13.068Z,1016.93
2017-04-19T03:17:53.558Z,1016.94
2017-04-19T03:18:34.054Z,1016.94
2017-04-19T03:19:14.524Z,1016.93
2017-04-19T03:19:54.985Z,1016.95
2017-04-19T03:20:35.458Z,1016.96
2017-04-19T03:21:15.950Z,1016.92
2017-04-19T03:21:56.418Z,1016.94
2017-04-19T03:22:36.906Z,1016.94
2017-04-19T03:23:17.388Z,1016.91
2017-04-19T03:23:57.884Z,1016.97
2017-04-19T03:24:38.359Z,1016.96
2017-04-19T03:25:19.503Z,1016.95
2017-04-19T03:25:59.977Z,1017
2017-04-19T03:26:40.451Z,1016.96
2017-04-19T03:27:20.959Z,1016.98
2017-04-19T03:28:01.453Z,1016.94
2017-04-19T03:28:41.931Z,1016.94
2017-04-19T03:29:22.428Z,1016.96
2017-04-19T03:30:02.933Z,1016.98
2017-04-19T03:30:43.393Z,1016.98
2017-04-19T03:31:23.882Z,1016.96
2017-04-19T03:32:04.368Z,1016.98
2017-04-19T03:32:44.863Z,1016.97
2017-04-19T03:33:25.326Z,1017
2017-04-19T03:34:05.818Z,1017.01
2017-04-19T03:34:46.305Z,1016.99
2017-04-19T03:35:26.796Z,1016.99
2017-04-19T03:36:07.263Z,1016.98
2017-04-19T03:36:47.727Z,1017.05
2017-04-19T03:37:28.198Z,1016.99
2017-04-19T03:38:08.690Z,1017.04
2017-04-19T03:38:49.188Z,1017.02
2017-04-19T03:39:29.665Z,1017.04
2017-04-19T03:40:10.127Z,1017.04
2017-04-19T03:40:50.623Z,1017.04
2017-04-19T03:41:31.119Z,1017.05
2017-04-19T03:42:11.600Z,1017.05
2017-04-19T03:42:52.068Z,1017.02
2017-04-19T03:43:32.596Z,1017.04
2017-04-19T03:44:13.072Z,1017.03
2017-04-19T03:46:10.756Z,1017.06
2017-04-19T03:46:51.213Z,1017.02
2017-04-19T03:47:31.701Z,1017.08
2017-04-19T03:48:12.130Z,1017.06
2017-04-19T03:48:52.570Z,1017.1
2017-04-19T03:51:05.261Z,1017.08
2017-04-19T03:51:45.717Z,1017.09
2017-04-19T03:52:26.203Z,1017.1
2017-04-19T03:53:06.679Z,1017.07
2017-04-19T03:53:47.170Z,1017.09
2017-04-19T03:54:27.655Z,1017.06
2017-04-19T03:55:08.136Z,1017.08
2017-04-19T03:55:48.611Z,1017.09
2017-04-19T03:56:29.089Z,1017.08
2017-04-19T03:57:09.527Z,1017.09
2017-04-19T03:57:49.985Z,1017.13
2017-04-19T03:58:30.419Z,1017.07
2017-04-19T03:59:10.857Z,1017.13
2017-04-19T03:59:51.300Z,1017.13
2017-04-19T04:05:18.604Z,1017.13
2017-04-19T04:05:59.074Z,1017.16
2017-04-19T04:06:39.540Z,1017.15
2017-04-19T04:07:20.022Z,1017.17
2017-04-19T04:08:00.461Z,1017.17
2017-04-19T04:10:18.219Z,1017.21
2017-04-19T04:10:58.697Z,1017.21
2017-04-19T04:11:39.151Z,1017.24
2017-04-19T04:13:36.797Z,1017.22
2017-04-19T04:14:17.274Z,1017.24
2017-04-19T04:14:57.752Z,1017.25
2017-04-19T04:15:38.208Z,1017.18
2017-04-19T04:16:18.645Z,1017.2
2017-04-19T04:16:59.084Z,1017.2
2017-04-19T04:17:39.538Z,1017.21
2017-04-19T04:18:20.044Z,1017.2
2017-04-19T04:19:00.490Z,1017.21
2017-04-19T04:19:40.959Z,1017.2
2017-04-19T04:20:21.429Z,1017.23
2017-04-19T04:21:01.894Z,1017.22
2017-04-19T04:21:42.329Z,1017.25
2017-04-19T04:22:22.771Z,1017.23
2017-04-19T04:23:03.243Z,1017.22
2017-04-19T04:23:43.706Z,1017.25
2017-04-19T04:24:24.172Z,1017.22
2017-04-19T04:26:21.848Z,1017.25
2017-04-19T04:27:02.275Z,1017.27
2017-04-19T04:29:14.928Z,1017.26
2017-04-19T04:29:55.403Z,1017.28
2017-04-19T04:30:35.869Z,1017.25
2017-04-19T04:31:16.365Z,1017.3
2017-04-19T04:31:56.826Z,1017.29
2017-04-19T04:32:37.279Z,1017.32
2017-04-19T04:33:17.742Z,1017.31
2017-04-19T04:33:58.220Z,1017.32
2017-04-19T04:34:38.676Z,1017.31
2017-04-19T04:35:19.140Z,1017.33
2017-04-19T04:35:59.619Z,1017.31
2017-04-19T04:36:40.052Z,1017.28
2017-04-19T04:37:20.505Z,1017.3
2017-04-19T04:39:33.201Z,1017.31
2017-04-19T04:40:13.662Z,1017.34
2017-04-19T04:40:54.152Z,1017.33
2017-04-19T04:41:34.626Z,1017.34
2017-04-19T04:42:15.112Z,1017.35
2017-04-19T04:42:55.582Z,1017.34
2017-04-19T04:43:36.053Z,1017.35
2017-04-19T04:44:16.527Z,1017.34
2017-04-19T04:44:57.020Z,1017.38
2017-04-19T04:45:37.500Z,1017.4
2017-04-19T04:46:17.973Z,1017.38
2017-04-19T04:46:58.432Z,1017.38
2017-04-19T04:47:38.883Z,1017.39
2017-04-19T04:48:19.344Z,1017.37
2017-04-19T04:48:59.773Z,1017.43
2017-04-19T04:49:40.196Z,1017.39
2017-04-19T04:50:20.640Z,1017.4
2017-04-19T04:52:13.180Z,1017.43
2017-04-19T04:52:53.625Z,1017.45
2017-04-19T04:53:34.123Z,1017.47
2017-04-19T04:54:14.566Z,1017.49
2017-04-19T04:56:32.331Z,1017.51
2017-04-19T04:57:12.817Z,1017.52
2017-04-19T04:57:53.312Z,1017.53
2017-04-19T04:58:33.794Z,1017.54
2017-04-19T04:59:14.281Z,1017.55
2017-04-19T04:59:54.757Z,1017.53
2017-04-19T05:00:35.313Z,1017.56
2017-04-19T05:01:15.726Z,1017.55
2017-04-19T05:01:56.195Z,1017.57
2017-04-19T05:02:36.678Z,1017.56
2017-04-19T05:03:17.157Z,1017.55
2017-04-19T05:03:57.618Z,1017.57
2017-04-19T05:04:38.095Z,1017.54
2017-04-19T05:05:18.576Z,1017.54
2017-04-19T05:05:59.038Z,1017.55
2017-04-19T05:06:39.549Z,1017.5
2017-04-19T05:07:20.111Z,1017.55
2017-04-19T05:08:00.510Z,1017.57
2017-04-19T05:08:40.995Z,1017.55
2017-04-19T05:09:21.489Z,1017.58
2017-04-19T05:10:01.968Z,1017.56
2017-04-19T05:10:42.445Z,1017.6
2017-04-19T05:11:22.938Z,1017.55
2017-04-19T05:12:03.409Z,1017.58
2017-04-19T05:12:43.900Z,1017.56
2017-04-19T05:13:24.374Z,1017.56
2017-04-19T05:14:04.835Z,1017.57
2017-04-19T05:16:02.457Z,1017.63
2017-04-19T05:16:42.929Z,1017.65
2017-04-19T05:17:23.416Z,1017.65
2017-04-19T05:18:03.919Z,1017.66
2017-04-19T05:18:44.420Z,1017.65
2017-04-19T05:19:24.905Z,1017.67
2017-04-19T05:20:05.421Z,1017.68
2017-04-19T05:20:45.841Z,1017.66
2017-04-19T05:21:26.312Z,1017.67
2017-04-19T05:22:06.749Z,1017.69
2017-04-19T05:22:47.204Z,1017.65
2017-04-19T05:24:39.746Z,1017.68
2017-04-19T05:25:20.225Z,1017.71
2017-04-19T05:26:00.720Z,1017.69
2017-04-19T05:26:41.192Z,1017.72
2017-04-19T05:27:21.691Z,1017.78
2017-04-19T05:28:02.162Z,1017.73
2017-04-19T05:28:42.642Z,1017.79
2017-04-19T05:29:23.135Z,1017.76
2017-04-19T05:30:03.647Z,1017.75
2017-04-19T05:30:44.119Z,1017.79
2017-04-19T05:31:24.591Z,1017.76
2017-04-19T05:33:17.109Z,1017.79
2017-04-19T05:33:57.589Z,1017.76
2017-04-19T05:34:38.074Z,1017.78
2017-04-19T05:35:18.534Z,1017.79
2017-04-19T05:35:59.025Z,1017.8
2017-04-19T05:36:39.500Z,1017.83
2017-04-19T05:37:19.981Z,1017.8
2017-04-19T05:38:00.484Z,1017.85
2017-04-19T05:38:40.968Z,1017.85
2017-04-19T05:39:21.495Z,1017.81
2017-04-19T05:40:01.992Z,1017.83
2017-04-19T05:40:42.474Z,1017.85
2017-04-19T05:41:23.005Z,1017.83
2017-04-19T05:42:03.493Z,1017.88
2017-04-19T05:42:43.951Z,1017.85
2017-04-19T05:43:24.424Z,1017.86
2017-04-19T05:44:04.911Z,1017.86
2017-04-19T05:44:45.406Z,1017.88
2017-04-19T05:45:25.884Z,1017.87
2017-04-19T05:46:06.376Z,1017.86
2017-04-19T05:46:46.871Z,1017.88
2017-04-19T05:47:27.342Z,1017.88
2017-04-19T05:48:07.819Z,1017.91
2017-04-19T05:48:48.299Z,1017.96
2017-04-19T05:49:28.775Z,1017.93
2017-04-19T05:50:09.267Z,1017.92
2017-04-19T05:50:49.740Z,1017.92
2017-04-19T05:51:30.218Z,1017.95
2017-04-19T05:52:10.688Z,1017.96
2017-04-19T05:52:51.182Z,1018
2017-04-19T05:53:31.657Z,1018.02
2017-04-19T05:55:49.471Z,1018.11
2017-04-19T05:56:29.989Z,1018.12
2017-04-19T05:57:10.458Z,1018.08
2017-04-19T05:57:50.921Z,1018.08
2017-04-19T05:58:31.405Z,1018.11
2017-04-19T05:59:11.878Z,1018.11
2017-04-19T05:59:52.305Z,1018.12
2017-04-19T06:00:32.792Z,1018.12
2017-04-19T06:01:13.275Z,1018.08
2017-04-19T06:01:53.767Z,1018.12
2017-04-19T06:02:34.258Z,1018.13
2017-04-19T06:03:14.738Z,1018.09
2017-04-19T06:03:55.177Z,1018.11
2017-04-19T06:04:35.623Z,1018.12
2017-04-19T06:05:16.123Z,1018.06
2017-04-19T06:07:28.838Z,1018.16
2017-04-19T06:08:09.292Z,1018.12
2017-04-19T06:10:27.072Z,1018.12
2017-04-19T06:11:07.558Z,1018.14
2017-04-19T06:11:48.045Z,1018.12
2017-04-19T06:12:28.538Z,1018.12
2017-04-19T06:13:09.024Z,1018.14
2017-04-19T06:13:49.511Z,1018.14
2017-04-19T06:14:29.967Z,1018.14
2017-04-19T06:15:10.399Z,1018.19
2017-04-19T06:15:50.880Z,1018.18
2017-04-19T06:18:03.585Z,1018.12
2017-04-19T06:18:44.069Z,1018.16
2017-04-19T06:19:24.525Z,1018.17
2017-04-19T06:20:04.989Z,1018.18
2017-04-19T06:20:45.439Z,1018.19
2017-04-19T06:21:25.904Z,1018.15
2017-04-19T06:22:06.337Z,1018.22
2017-04-19T06:22:46.831Z,1018.22
2017-04-19T06:23:27.278Z,1018.25
2017-04-19T06:24:07.756Z,1018.24
2017-04-19T06:24:48.194Z,1018.25
2017-04-19T06:25:28.632Z,1018.24
2017-04-19T06:26:09.090Z,1018.23
2017-04-19T06:26:49.562Z,1018.25
2017-04-19T06:27:30.000Z,1018.25
2017-04-19T06:28:10.479Z,1018.26
2017-04-19T06:28:50.951Z,1018.23
2017-04-19T06:29:31.450Z,1018.25
2017-04-19T06:30:11.852Z,1018.25
2017-04-19T06:30:52.311Z,1018.33
2017-04-19T06:31:32.742Z,1018.3
2017-04-19T06:32:13.190Z,1018.3
2017-04-19T06:32:53.656Z,1018.28
2017-04-19T06:33:34.134Z,1018.27
2017-04-19T06:34:14.598Z,1018.32
2017-04-19T06:34:55.081Z,1018.33
2017-04-19T06:35:35.538Z,1018.3
2017-04-19T06:36:16.009Z,1018.29
2017-04-19T06:36:56.497Z,1018.33
2017-04-19T06:37:36.963Z,1018.33
2017-04-19T06:39:55.127Z,1018.34
2017-04-19T06:40:35.561Z,1018.36
2017-04-19T06:41:16.036Z,1018.38
2017-04-19T06:41:56.520Z,1018.42
2017-04-19T06:42:36.976Z,1018.45
2017-04-19T06:43:17.430Z,1018.44
2017-04-19T06:43:58.235Z,1018.47
2017-04-19T06:44:38.746Z,1018.54
2017-04-19T06:45:19.190Z,1018.56
2017-04-19T06:45:59.675Z,1018.6
2017-04-19T06:47:57.299Z,1018.6
2017-04-19T06:48:37.776Z,1018.59
2017-04-19T06:51:05.719Z,1018.52
2017-04-19T06:53:23.601Z,1018.41
2017-04-19T06:54:04.062Z,1018.36
2017-04-19T06:54:44.629Z,1018.42
2017-04-19T06:55:25.078Z,1018.46
2017-04-19T06:57:37.802Z,1018.47
2017-04-19T06:59:55.589Z,1018.5
2017-04-19T07:00:36.068Z,1018.58
2017-04-19T07:01:16.533Z,1018.68
2017-04-19T07:01:57.002Z,1018.75
2017-04-19T07:02:37.470Z,1018.65
2017-04-19T07:04:35.353Z,1018.7
2017-04-19T07:05:15.864Z,1018.65
2017-04-19T07:05:56.314Z,1018.59
2017-04-19T07:06:36.835Z,1018.53
2017-04-19T07:07:17.267Z,1018.49
2017-04-19T07:07:57.725Z,1018.47
2017-04-19T07:08:38.220Z,1018.46
2017-04-19T07:09:18.642Z,1018.46
2017-04-19T07:09:59.140Z,1018.48
2017-04-19T07:10:39.608Z,1018.47
2017-04-19T07:11:20.051Z,1018.43
2017-04-19T07:12:00.563Z,1018.48
2017-04-19T07:12:41.121Z,1018.51
2017-04-19T07:13:21.727Z,1018.5
2017-04-19T07:14:02.192Z,1018.53
2017-04-19T07:14:42.669Z,1018.55
2017-04-19T07:16:40.329Z,1018.49
2017-04-19T07:17:20.782Z,1018.55
2017-04-19T07:18:01.212Z,1018.51
2017-04-19T07:18:41.706Z,1018.55
2017-04-19T07:19:22.172Z,1018.59
2017-04-19T07:20:02.630Z,1018.57
2017-04-19T07:20:43.088Z,1018.56
2017-04-19T07:21:23.515Z,1018.59
2017-04-19T07:23:16.212Z,1018.66
2017-04-19T07:23:56.825Z,1018.65
2017-04-19T07:24:37.437Z,1018.69
2017-04-19T07:25:18.045Z,1018.69
2017-04-19T07:25:58.611Z,1018.68
2017-04-19T07:26:39.224Z,1018.7
2017-04-19T07:27:19.800Z,1018.72
2017-04-19T07:28:00.371Z,1018.73
2017-04-19T07:28:40.936Z,1018.71
2017-04-19T07:29:21.434Z,1018.66
2017-04-19T07:30:01.859Z,1018.67
2017-04-19T07:32:29.775Z,1018.61
2017-04-19T07:33:10.291Z,1018.61
2017-04-19T07:33:50.771Z,1018.64
2017-04-19T07:34:31.239Z,1018.63
2017-04-19T07:35:11.699Z,1018.65
2017-04-19T07:35:52.116Z,1018.67
2017-04-19T07:36:32.572Z,1018.69
2017-04-19T07:37:12.987Z,1018.69
2017-04-19T07:37:53.413Z,1018.69
2017-04-19T07:38:33.882Z,1018.7
2017-04-19T07:39:14.325Z,1018.73
2017-04-19T07:39:54.802Z,1018.76
2017-04-19T07:40:35.256Z,1018.74
2017-04-19T07:41:15.817Z,1018.73
2017-04-19T07:41:56.186Z,1018.73
2017-04-19T07:42:36.687Z,1018.77
2017-04-19T07:43:17.155Z,1018.78
2017-04-19T07:45:34.954Z,1018.78
2017-04-19T07:46:15.416Z,1018.79
2017-04-19T07:46:55.866Z,1018.83
2017-04-19T07:47:36.403Z,1018.85
2017-04-19T07:48:16.882Z,1018.89
2017-04-19T07:48:57.346Z,1018.91
2017-04-19T07:49:37.818Z,1018.93
2017-04-19T07:50:18.260Z,1018.93
2017-04-19T07:50:58.698Z,1018.92
2017-04-19T07:51:39.252Z,1018.97
2017-04-19T07:52:19.753Z,1018.97
2017-04-19T07:53:00.214Z,1018.98
2017-04-19T07:54:57.826Z,1019.03
2017-04-19T07:55:38.268Z,1019.1
2017-04-19T07:56:18.754Z,1019.15
2017-04-19T07:56:59.220Z,1019.12
2017-04-19T07:57:39.680Z,1019.35
2017-04-19T07:59:37.283Z,1019.3
2017-04-19T08:00:17.791Z,1019.38
2017-04-19T08:00:58.272Z,1019.36
2017-04-19T08:01:38.865Z,1019.25
2017-04-19T08:02:19.443Z,1019.31
2017-04-19T08:02:59.970Z,1019.27
2017-04-19T08:03:40.603Z,1019.29
2017-04-19T08:04:21.249Z,1019.29
2017-04-19T08:05:02.093Z,1019.18
2017-04-19T08:05:42.679Z,1019.21
2017-04-19T08:06:23.196Z,1019.22
2017-04-19T08:07:03.753Z,1019.26
2017-04-19T08:07:44.291Z,1019.19
2017-04-19T08:08:24.796Z,1019.22
2017-04-19T08:09:05.356Z,1019.21
2017-04-19T08:09:45.952Z,1019.14
2017-04-19T08:10:26.467Z,1019.05
2017-04-19T08:11:06.926Z,1019.08
2017-04-19T08:11:47.401Z,1019.14
2017-04-19T08:13:40.015Z,1019.14
2017-04-19T08:14:20.421Z,1019.1
2017-04-19T08:15:00.921Z,1019.14
2017-04-19T08:15:41.417Z,1019.21
2017-04-19T08:17:34.069Z,1019.26
2017-04-19T08:18:14.548Z,1019.22
2017-04-19T08:18:55.024Z,1019.28
2017-04-19T08:19:35.511Z,1019.23
2017-04-19T08:20:16.013Z,1019.21
2017-04-19T08:22:44.175Z,1019.36
2017-04-19T08:23:24.637Z,1019.39
2017-04-19T08:24:05.117Z,1019.39
2017-04-19T08:24:45.638Z,1019.43
2017-04-19T08:25:26.120Z,1019.43
2017-04-19T08:26:06.607Z,1019.34
2017-04-19T08:26:47.102Z,1019.34
2017-04-19T08:27:27.613Z,1019.3
2017-04-19T08:28:08.130Z,1019.26
2017-04-19T08:28:48.684Z,1019.26
2017-04-19T08:29:29.305Z,1019.6
2017-04-19T08:30:09.911Z,1019.34
2017-04-19T08:30:50.494Z,1019.31
2017-04-19T08:31:31.034Z,1019.4
2017-04-19T08:32:11.685Z,1019.36
2017-04-19T08:32:52.333Z,1019.32
2017-04-19T08:33:32.971Z,1019.27
2017-04-19T08:34:13.503Z,1019.21
2017-04-19T08:34:54.039Z,1019.17
2017-04-19T08:35:34.559Z,1019.2
2017-04-19T08:38:02.514Z,1019.08
2017-04-19T08:39:55.426Z,1019.13
2017-04-19T08:40:35.828Z,1019.2
2017-04-19T08:41:16.301Z,1019.26
2017-04-19T08:41:56.853Z,1019.35
2017-04-19T08:44:09.587Z,1019
2017-04-19T08:44:50.036Z,1019.06
2017-04-19T08:45:30.520Z,1019.07
2017-04-19T08:46:11.007Z,1019.15
2017-04-19T08:46:51.489Z,1019.18
2017-04-19T08:47:32.042Z,1019.17
2017-04-19T08:48:12.531Z,1019.22
2017-04-19T08:48:53.032Z,1019.24
2017-04-19T08:49:33.694Z,1019.2
2017-04-19T08:50:14.293Z,1019.18
2017-04-19T08:50:55.635Z,1019.2
2017-04-19T08:51:36.152Z,1019.15
2017-04-19T08:54:04.165Z,1019.2
2017-04-19T08:54:44.773Z,1019.17
2017-04-19T08:55:25.276Z,1019.15
2017-04-19T08:56:05.832Z,1019.16
2017-04-19T08:56:46.359Z,1019.13
2017-04-19T08:57:26.924Z,1019.13
2017-04-19T08:58:07.440Z,1019.11
2017-04-19T08:58:47.938Z,1019.14
2017-04-19T08:59:28.389Z,1019.17
2017-04-19T09:00:08.847Z,1019.16
2017-04-19T09:02:06.548Z,1019.22
2017-04-19T09:02:46.999Z,1019.19
2017-04-19T09:03:27.479Z,1019.21
2017-04-19T09:05:45.269Z,1019.29
2017-04-19T09:06:25.757Z,1019.29
2017-04-19T09:07:06.220Z,1019.3
2017-04-19T09:07:46.726Z,1019.33
2017-04-19T09:08:27.174Z,1019.33
2017-04-19T09:09:07.636Z,1019.39
2017-04-19T09:09:48.135Z,1019.4
2017-04-19T09:10:28.600Z,1019.38
2017-04-19T09:11:09.055Z,1019.41
2017-04-19T09:11:49.503Z,1019.37
2017-04-19T09:12:29.989Z,1019.45
2017-04-19T09:13:10.498Z,1019.45
2017-04-19T09:13:50.966Z,1019.43
2017-04-19T09:14:31.423Z,1019.5
2017-04-19T09:15:11.894Z,1019.49
2017-04-19T09:15:52.406Z,1019.49
2017-04-19T09:16:32.903Z,1019.5
2017-04-19T09:17:13.361Z,1019.52
2017-04-19T09:17:53.942Z,1019.48
2017-04-19T09:18:34.430Z,1019.48
2017-04-19T09:19:14.880Z,1019.53
2017-04-19T09:19:55.337Z,1019.47
2017-04-19T09:20:35.830Z,1019.47
2017-04-19T09:21:16.333Z,1019.5
2017-04-19T09:21:56.814Z,1019.51
2017-04-19T09:22:37.317Z,1019.6
2017-04-19T09:23:17.892Z,1019.59
2017-04-19T09:23:58.438Z,1019.59
2017-04-19T09:24:38.946Z,1019.6
2017-04-19T09:26:56.758Z,1019.63
2017-04-19T09:27:37.268Z,1019.7
2017-04-19T09:28:17.768Z,1019.66
2017-04-19T09:28:58.229Z,1019.68
2017-04-19T09:29:38.733Z,1019.73
2017-04-19T09:30:19.208Z,1019.67
2017-04-19T09:30:59.707Z,1019.73
2017-04-19T09:31:40.157Z,1019.67
2017-04-19T09:33:58.069Z,1019.69
2017-04-19T09:34:38.545Z,1019.74
2017-04-19T09:36:54.427Z,1019.73
2017-04-19T09:37:34.889Z,1019.72